Time;durP1;ratioP1;P1;durP2;ratioP2;P2;SDS_P1;SDS_P2;PMS_P1;PMS_P2;Temp;Humidity;BMP_temperature;BMP_pressure;BME280_temperature;BME280_humidity;BME280_pressure;Samples;Min_cycle;Max_cycle;Signal;HPM_P1;HPM_P2
2023/07/05 00:00:14;;;;;;;7.55;3.33;;;;;;;;;;5112694;28;20388;-81
2023/07/05 00:02:45;;;;;;;5.43;3.47;;;;;;;;;;5110853;28;20050;-80
2023/07/05 00:05:12;;;;;;;5.95;3.35;;;;;;;;;;5109048;28;20493;-80
2023/07/05 00:07:41;;;;;;;6.68;3.47;;;;;;;;;;5112981;28;20070;-80
2023/07/05 00:10:08;;;;;;;;;;;;;;;;;;5113509;28;20054;-80
2023/07/05 00:12:37;;;;;;;6.80;2.80;;;;;;;;;;5112985;28;19919;-80
2023/07/05 00:15:04;;;;;;;4.30;3.13;;;;;;;;;;5112917;28;20048;-80
2023/07/05 00:17:32;;;;;;;4.82;3.20;;;;;;;;;;5113496;28;20052;-79
2023/07/05 00:20:01;;;;;;;21.15;4.18;;;;;;;;;;5096576;28;20056;-80
2023/07/05 00:22:28;;;;;;;3.70;2.90;;;;;;;;;;5095900;28;20079;-80
2023/07/05 00:24:56;;;;;;;5.78;3.72;;;;;;;;;;5096034;28;20494;-80
2023/07/05 00:27:26;;;;;;;5.38;3.22;;;;;;;;;;5095705;28;20052;-80
2023/07/05 00:29:55;;;;;;;4.50;3.22;;;;;;;;;;5096061;28;20052;-80
2023/07/05 00:32:22;;;;;;;4.70;2.80;;;;;;;;;;5095478;28;20063;-79
2023/07/05 00:34:51;;;;;;;4.65;3.10;;;;;;;;;;5114988;28;20048;-80
2023/07/05 00:37:19;;;;;;;8.38;3.15;;;;;;;;;;5116363;28;20051;-80
2023/07/05 00:39:46;;;;;;;5.35;3.60;;;;;;;;;;5116304;28;20058;-79
2023/07/05 00:42:13;;;;;;;9.00;3.40;;;;;;;;;;5115562;28;20043;-79
2023/07/05 00:44:40;;;;;;;6.00;3.97;;;;;;;;;;5116165;28;20043;-80
2023/07/05 00:47:09;;;;;;;19.27;5.00;;;;;;;;;;5113720;28;20047;-79
2023/07/05 00:49:36;;;;;;;7.22;4.68;;;;;;;;;;5113879;28;20055;-79
2023/07/05 00:52:05;;;;;;;5.78;3.85;;;;;;;;;;5107452;28;20511;-77
2023/07/05 00:54:35;;;;;;;7.77;4.43;;;;;;;;;;5104654;28;20044;-79
2023/07/05 00:57:04;;;;;;;7.93;4.15;;;;;;;;;;5095297;28;20056;-80
2023/07/05 00:59:35;;;;;;;4.70;3.83;;;;;;;;;;5095396;28;20059;-79
2023/07/05 01:02:02;;;;;;;7.85;4.05;;;;;;;;;;5095532;28;20378;-79
2023/07/05 01:04:30;;;;;;;5.18;3.90;;;;;;;;;;5107969;28;20043;-79
2023/07/05 01:07:01;;;;;;;7.22;3.78;;;;;;;;;;5115392;28;20051;-79
2023/07/05 01:09:28;;;;;;;6.40;4.78;;;;;;;;;;5115801;28;20404;-80
2023/07/05 01:12:04;;;;;;;5.53;3.78;;;;;;;;;;5115518;28;20060;-80
2023/07/05 01:14:34;;;;;;;4.85;3.90;;;;;;;;;;5115448;28;20055;-79
2023/07/05 01:17:10;;;;;;;5.55;3.25;;;;;;;;;;5114855;28;20052;-79
2023/07/05 01:19:51;;;;;;;6.68;3.17;;;;;;;;;;5097291;28;20462;-80
2023/07/05 01:22:27;;;;;;;8.23;3.70;;;;;;;;;;5092007;28;20404;-80
2023/07/05 01:25:08;;;;;;;4.75;3.72;;;;;;;;;;5094835;28;20401;-80
2023/07/05 01:27:56;;;;;;;5.05;3.85;;;;;;;;;;5093877;28;20374;-80
2023/07/05 01:30:44;;;;;;;4.38;3.38;;;;;;;;;;5068429;28;20493;-79
2023/07/05 01:33:14;;;;;;;6.60;3.72;;;;;;;;;;5096486;28;20055;-79
2023/07/05 01:35:45;;;;;;;9.32;5.53;;;;;;;;;;5115314;27;20047;-79
2023/07/05 01:38:13;;;;;;;6.03;4.32;;;;;;;;;;5113978;28;20051;-79
2023/07/05 01:40:50;;;;;;;7.55;5.25;;;;;;;;;;5112553;28;20052;-79
2023/07/05 01:43:18;;;;;;;20.17;4.55;;;;;;;;;;5114664;28;20055;-79
2023/07/05 01:45:47;;;;;;;20.98;6.20;;;;;;;;;;5114697;28;20063;-79
2023/07/05 01:48:20;;;;;;;33.70;7.18;;;;;;;;;;5112320;28;20052;-78
2023/07/05 01:50:49;;;;;;;9.90;4.80;;;;;;;;;;5094500;28;20060;-78
2023/07/05 01:53:18;;;;;;;8.63;5.45;;;;;;;;;;5094557;28;20378;-78
2023/07/05 01:55:49;;;;;;;7.10;4.72;;;;;;;;;;5094447;28;20056;-78
2023/07/05 01:58:19;;;;;;;8.48;5.38;;;;;;;;;;5094307;28;20063;-78
2023/07/05 02:00:47;;;;;;;5.90;4.45;;;;;;;;;;5093924;28;20060;-78
2023/07/05 02:03:20;;;;;;;6.30;4.55;;;;;;;;;;5094764;28;20059;-78
2023/07/05 02:05:53;;;;;;;7.82;5.43;;;;;;;;;;5097174;28;20052;-78
2023/07/05 02:08:24;;;;;;;8.95;6.50;;;;;;;;;;5094416;28;20055;-78
2023/07/05 02:10:51;;;;;;;6.03;4.35;;;;;;;;;;5110019;28;20055;-78
2023/07/05 02:13:18;;;;;;;7.05;4.97;;;;;;;;;;5113430;28;20161;-78
2023/07/05 02:15:48;;;;;;;6.60;5.22;;;;;;;;;;5114191;28;20067;-78
2023/07/05 02:18:15;;;;;;;5.03;3.95;;;;;;;;;;5110912;28;20181;-78
2023/07/05 02:20:45;;;;;;;8.57;5.30;;;;;;;;;;5093511;28;20465;-78
2023/07/05 02:23:13;;;;;;;7.50;4.35;;;;;;;;;;5094238;28;20048;-78
2023/07/05 02:25:40;;;;;;;5.00;3.60;;;;;;;;;;5094064;28;20048;-78
2023/07/05 02:28:07;;;;;;;5.45;4.10;;;;;;;;;;5093972;28;20386;-78
2023/07/05 02:30:35;;;;;;;6.68;3.67;;;;;;;;;;5093589;28;20055;-78
2023/07/05 02:33:02;;;;;;;4.40;3.30;;;;;;;;;;5094382;28;20404;-78
2023/07/05 02:35:34;;;;;;;5.22;3.55;;;;;;;;;;5093859;28;20524;-78
2023/07/05 02:38:03;;;;;;;3.80;3.40;;;;;;;;;;5093789;28;20056;-78
2023/07/05 02:40:33;;;;;;;4.72;3.95;;;;;;;;;;5092687;28;20075;-78
2023/07/05 02:43:00;;;;;;;5.05;3.30;;;;;;;;;;5093449;28;20052;-78
2023/07/05 02:45:27;;;;;;;4.32;3.25;;;;;;;;;;5093566;28;20487;-78
2023/07/05 02:47:54;;;;;;;3.53;2.80;;;;;;;;;;5104731;28;20054;-78
2023/07/05 02:50:24;;;;;;;4.13;3.15;;;;;;;;;;5093423;28;20063;-78
2023/07/05 02:52:50;;;;;;;3.92;3.25;;;;;;;;;;5093127;28;20055;-78
2023/07/05 02:55:17;;;;;;;5.03;3.28;;;;;;;;;;5093475;28;20048;-78
2023/07/05 02:57:45;;;;;;;4.70;3.05;;;;;;;;;;5093414;28;20405;-78
2023/07/05 03:00:13;;;;;;;5.13;2.80;;;;;;;;;;5093548;28;20055;-78
2023/07/05 03:02:40;;;;;;;7.43;3.70;;;;;;;;;;5093307;28;20048;-78
2023/07/05 03:05:07;;;;;;;12.07;4.22;;;;;;;;;;5108146;28;20052;-78
2023/07/05 03:07:34;;;;;;;6.45;3.92;;;;;;;;;;5112925;28;20055;-78
2023/07/05 03:10:01;;;;;;;7.95;4.00;;;;;;;;;;5113258;28;20051;-77
2023/07/05 03:12:28;;;;;;;33.25;5.90;;;;;;;;;;5113378;28;20063;-77
2023/07/05 03:14:56;;;;;;;6.95;4.30;;;;;;;;;;5113110;28;20052;-77
2023/07/05 03:17:23;;;;;;;9.05;5.78;;;;;;;;;;5112939;28;20387;-78
2023/07/05 03:19:52;;;;;;;6.90;5.25;;;;;;;;;;5110179;28;20508;-79
2023/07/05 03:22:19;;;;;;;7.85;4.68;;;;;;;;;;5113137;28;20051;-80
2023/07/05 03:24:45;;;;;;;7.30;5.22;;;;;;;;;;5113233;28;20350;-79
2023/07/05 03:27:12;;;;;;;7.57;4.45;;;;;;;;;;5113204;28;20047;-79
2023/07/05 03:29:39;;;;;;;8.10;4.70;;;;;;;;;;5113037;28;20389;-80
2023/07/05 03:32:08;;;;;;;10.23;6.93;;;;;;;;;;5112915;28;20051;-79
2023/07/05 03:34:35;;;;;;;6.60;5.55;;;;;;;;;;5110776;28;20047;-80
2023/07/05 03:37:02;;;;;;;5.25;4.13;;;;;;;;;;5112343;28;20063;-79
2023/07/05 03:39:28;;;;;;;5.50;4.13;;;;;;;;;;5112973;28;20056;-80
2023/07/05 03:41:55;;;;;;;6.53;4.75;;;;;;;;;;5113123;28;20059;-79
2023/07/05 03:44:24;;;;;;;8.15;6.25;;;;;;;;;;5112700;28;20109;-80
2023/07/05 03:46:51;;;;;;;4.70;4.13;;;;;;;;;;5112845;28;20396;-80
2023/07/05 03:49:19;;;;;;;7.20;5.40;;;;;;;;;;5096445;28;20056;-80
2023/07/05 03:51:48;;;;;;;4.57;4.00;;;;;;;;;;5095665;28;20048;-80
2023/07/05 03:54:15;;;;;;;4.55;3.92;;;;;;;;;;5110883;28;20055;-79
2023/07/05 03:56:41;;;;;;;5.70;4.90;;;;;;;;;;5117220;28;20059;-80
2023/07/05 03:59:09;;;;;;;6.60;4.93;;;;;;;;;;5117005;28;20503;-80
2023/07/05 04:01:36;;;;;;;6.30;4.70;;;;;;;;;;5117125;28;20412;-79
2023/07/05 04:04:03;;;;;;;4.88;4.18;;;;;;;;;;5109755;27;20408;-79
2023/07/05 04:06:32;;;;;;;6.47;4.55;;;;;;;;;;5106745;28;20121;-79
2023/07/05 04:08:59;;;;;;;4.68;4.10;;;;;;;;;;5105239;28;20059;-80
2023/07/05 04:11:26;;;;;;;4.13;3.15;;;;;;;;;;5107518;28;20052;-80
2023/07/05 04:13:54;;;;;;;3.50;3.00;;;;;;;;;;5112886;28;20059;-79
2023/07/05 04:16:21;;;;;;;3.55;2.97;;;;;;;;;;5116957;28;20052;-79
2023/07/05 04:18:51;;;;;;;4.32;3.50;;;;;;;;;;5113291;28;20051;-80
2023/07/05 04:21:18;;;;;;;4.13;3.63;;;;;;;;;;5116814;28;20070;-80
2023/07/05 04:23:46;;;;;;;4.70;3.95;;;;;;;;;;5116831;28;20048;-80
2023/07/05 04:26:15;;;;;;;4.45;3.75;;;;;;;;;;5116213;28;20066;-79
2023/07/05 04:28:42;;;;;;;5.45;3.38;;;;;;;;;;5114997;28;20059;-79
2023/07/05 04:31:10;;;;;;;6.00;4.00;;;;;;;;;;5116614;28;20499;-80
2023/07/05 04:33:37;;;;;;;6.38;2.97;;;;;;;;;;5113197;27;20412;-80
2023/07/05 04:36:04;;;;;;;6.25;2.53;;;;;;;;;;5116754;28;20048;-80
2023/07/05 04:38:31;;;;;;;3.40;2.28;;;;;;;;;;5114704;28;20058;-80
2023/07/05 04:40:59;;;;;;;3.55;2.38;;;;;;;;;;5104041;28;20056;-79
2023/07/05 04:43:26;;;;;;;4.38;2.67;;;;;;;;;;5095603;28;20052;-79
2023/07/05 04:45:54;;;;;;;3.83;2.75;;;;;;;;;;5096004;28;20515;-79
2023/07/05 04:48:21;;;;;;;4.65;2.70;;;;;;;;;;5096253;28;20063;-79
2023/07/05 04:50:48;;;;;;;2.90;2.10;;;;;;;;;;5095855;28;20059;-79
2023/07/05 04:53:15;;;;;;;4.95;2.95;;;;;;;;;;5096022;28;20056;-79
2023/07/05 04:55:44;;;;;;;5.22;2.80;;;;;;;;;;5098049;28;20047;-80
2023/07/05 04:58:13;;;;;;;3.20;2.13;;;;;;;;;;5116080;28;20047;-79
2023/07/05 05:00:39;;;;;;;6.05;2.50;;;;;;;;;;5107346;28;20044;-79
2023/07/05 05:03:06;;;;;;;5.93;2.50;;;;;;;;;;5093678;28;20056;-79
2023/07/05 05:05:33;;;;;;;4.78;2.30;;;;;;;;;;5095397;28;20048;-79
2023/07/05 05:08:00;;;;;;;6.75;2.50;;;;;;;;;;5095298;28;20397;-79
2023/07/05 05:10:26;;;;;;;3.72;2.28;;;;;;;;;;5095304;28;20394;-79
2023/07/05 05:12:53;;;;;;;5.00;2.40;;;;;;;;;;5095481;28;20063;-79
2023/07/05 05:15:21;;;;;;;6.63;2.70;;;;;;;;;;5095400;28;20059;-79
2023/07/05 05:17:49;;;;;;;5.30;2.65;;;;;;;;;;5094656;28;20055;-79
2023/07/05 05:20:17;;;;;;;4.28;2.53;;;;;;;;;;5095318;28;20476;-79
2023/07/05 05:22:43;;;;;;;5.25;2.85;;;;;;;;;;5094777;28;20056;-79
2023/07/05 05:25:10;;;;;;;3.22;2.50;;;;;;;;;;5095161;28;20085;-79
2023/07/05 05:27:37;;;;;;;3.90;2.53;;;;;;;;;;5094997;28;20052;-79
2023/07/05 05:30:04;;;;;;;5.07;2.58;;;;;;;;;;5094728;28;20056;-79
2023/07/05 05:32:33;;;;;;;6.00;4.05;;;;;;;;;;5095363;28;20056;-79
2023/07/05 05:35:00;;;;;;;4.57;2.80;;;;;;;;;;5094242;28;20056;-79
2023/07/05 05:37:26;;;;;;;5.95;3.40;;;;;;;;;;5094887;28;20052;-79
2023/07/05 05:39:53;;;;;;;4.47;2.60;;;;;;;;;;5095949;28;20396;-79
2023/07/05 05:42:20;;;;;;;4.75;3.20;;;;;;;;;;5106575;28;20055;-79
2023/07/05 05:44:47;;;;;;;3.92;2.38;;;;;;;;;;5098204;28;20067;-79
2023/07/05 05:47:14;;;;;;;4.53;2.38;;;;;;;;;;5104952;28;20051;-80
2023/07/05 05:49:42;;;;;;;4.78;2.58;;;;;;;;;;5097347;28;20489;-79
2023/07/05 05:52:08;;;;;;;4.20;2.42;;;;;;;;;;5104206;28;20051;-79
2023/07/05 05:54:35;;;;;;;3.95;2.83;;;;;;;;;;5100052;28;20059;-79
2023/07/05 05:57:02;;;;;;;4.38;2.67;;;;;;;;;;5102586;28;20047;-80
2023/07/05 05:59:29;;;;;;;5.20;3.05;;;;;;;;;;5114229;28;20055;-80
2023/07/05 06:01:56;;;;;;;3.65;2.35;;;;;;;;;;5102939;28;20059;-80
2023/07/05 06:04:23;;;;;;;3.40;2.50;;;;;;;;;;5109434;28;20067;-81
2023/07/05 06:06:51;;;;;;;3.97;2.30;;;;;;;;;;5096928;28;20059;-80
2023/07/05 06:09:17;;;;;;;4.72;2.78;;;;;;;;;;5111200;28;20052;-80
2023/07/05 06:11:44;;;;;;;5.60;2.95;;;;;;;;;;5099476;28;20473;-79
2023/07/05 06:14:11;;;;;;;5.70;2.80;;;;;;;;;;5112398;28;20370;-80
2023/07/05 06:16:38;;;;;;;3.40;2.35;;;;;;;;;;5093323;28;20044;-80
2023/07/05 06:19:04;;;;;;;5.30;2.90;;;;;;;;;;5094114;28;20048;-80
2023/07/05 06:21:31;;;;;;;3.88;2.60;;;;;;;;;;5106329;28;20048;-80
2023/07/05 06:23:59;;;;;;;4.28;3.05;;;;;;;;;;5103615;28;20044;-80
2023/07/05 06:26:26;;;;;;;4.60;2.58;;;;;;;;;;5093868;28;20044;-80
2023/07/05 06:28:53;;;;;;;4.85;2.67;;;;;;;;;;5103240;28;20052;-80
2023/07/05 06:31:20;;;;;;;15.68;3.45;;;;;;;;;;5101390;28;20547;-80
2023/07/05 06:33:47;;;;;;;4.93;2.97;;;;;;;;;;5104392;28;20067;-80
2023/07/05 06:36:13;;;;;;;7.95;2.90;;;;;;;;;;5104826;28;20070;-80
2023/07/05 06:38:40;;;;;;;4.07;2.80;;;;;;;;;;5110747;28;20047;-78
2023/07/05 06:41:08;;;;;;;6.88;3.42;;;;;;;;;;5104497;28;20059;-78
2023/07/05 06:43:35;;;;;;;4.03;2.72;;;;;;;;;;5097412;28;20051;-79
2023/07/05 06:46:02;;;;;;;4.13;2.80;;;;;;;;;;5101743;28;20400;-80
2023/07/05 06:48:29;;;;;;;4.47;2.67;;;;;;;;;;5104498;28;20496;-80
2023/07/05 06:50:58;;;;;;;5.38;2.65;;;;;;;;;;5093258;28;20056;-79
2023/07/05 06:53:25;;;;;;;4.57;2.63;;;;;;;;;;5107520;28;20052;-80
2023/07/05 06:55:52;;;;;;;5.68;2.70;;;;;;;;;;5104168;28;20121;-80
2023/07/05 06:58:22;;;;;;;4.68;2.75;;;;;;;;;;5102275;28;20056;-81
2023/07/05 07:00:49;;;;;;;5.50;2.55;;;;;;;;;;5100471;28;20047;-80
2023/07/05 07:03:16;;;;;;;4.35;2.78;;;;;;;;;;5108076;28;20412;-82
2023/07/05 07:05:48;;;;;;;3.80;2.47;;;;;;;;;;5101424;28;20389;-82
2023/07/05 07:08:15;;;;;;;3.95;2.67;;;;;;;;;;5112521;28;20047;-82
2023/07/05 07:10:42;;;;;;;5.63;3.22;;;;;;;;;;5112333;28;20067;-82
2023/07/05 07:13:08;;;;;;;4.22;2.58;;;;;;;;;;5096310;28;20056;-82
2023/07/05 07:15:37;;;;;;;3.63;2.35;;;;;;;;;;5092756;28;20056;-82
2023/07/05 07:18:03;;;;;;;5.07;2.85;;;;;;;;;;5099525;28;20048;-82
2023/07/05 07:20:31;;;;;;;6.32;2.30;;;;;;;;;;5103619;28;20431;-82
2023/07/05 07:22:59;;;;;;;5.30;2.60;;;;;;;;;;5106294;28;20070;-82
2023/07/05 07:25:25;;;;;;;4.05;2.10;;;;;;;;;;5108022;28;20353;-82
2023/07/05 07:27:52;;;;;;;4.68;2.53;;;;;;;;;;5106261;28;20400;-82
2023/07/05 07:30:19;;;;;;;3.40;2.00;;;;;;;;;;5106566;28;20059;-82
2023/07/05 07:32:47;;;;;;;3.53;2.20;;;;;;;;;;5109528;28;20048;-82
2023/07/05 07:35:15;;;;;;;5.03;2.10;;;;;;;;;;5101681;28;20054;-82
2023/07/05 07:37:41;;;;;;;4.50;1.92;;;;;;;;;;5108261;28;20460;-83
2023/07/05 07:40:08;;;;;;;4.63;2.20;;;;;;;;;;5103666;28;20067;-83
2023/07/05 07:42:35;;;;;;;4.40;1.88;;;;;;;;;;5108470;28;20735;-82
2023/07/05 07:45:02;;;;;;;4.53;2.10;;;;;;;;;;5105741;28;20047;-82
2023/07/05 07:47:29;;;;;;;4.03;2.30;;;;;;;;;;5101433;28;20381;-82
2023/07/05 07:49:57;;;;;;;5.60;2.50;;;;;;;;;;5103148;28;20052;-82
2023/07/05 07:52:24;;;;;;;3.45;1.65;;;;;;;;;;5107295;28;20066;-82
2023/07/05 07:54:54;;;;;;;3.13;2.10;;;;;;;;;;5108940;28;20051;-82
2023/07/05 07:57:21;;;;;;;4.47;2.17;;;;;;;;;;5103622;28;20044;-83
2023/07/05 07:59:48;;;;;;;5.93;2.15;;;;;;;;;;5104656;28;20055;-82
2023/07/05 08:02:16;;;;;;;3.92;2.00;;;;;;;;;;5109634;28;20499;-82
2023/07/05 08:04:44;;;;;;;5.20;2.50;;;;;;;;;;5103552;28;20043;-83
2023/07/05 08:07:13;;;;;;;5.03;2.13;;;;;;;;;;5105956;28;20048;-82
2023/07/05 08:09:40;;;;;;;3.08;1.80;;;;;;;;;;5107687;28;20048;-83
2023/07/05 08:12:08;;;;;;;13.45;2.30;;;;;;;;;;5105638;28;20055;-83
2023/07/05 08:14:35;;;;;;;2.60;1.58;;;;;;;;;;5107607;28;20063;-82
2023/07/05 08:17:01;;;;;;;3.83;2.00;;;;;;;;;;5101564;28;20055;-81
2023/07/05 08:19:31;;;;;;;3.35;1.65;;;;;;;;;;5097945;28;20052;-82
2023/07/05 08:21:58;;;;;;;4.07;1.70;;;;;;;;;;5105139;28;20392;-78
2023/07/05 08:24:26;;;;;;;3.95;1.83;;;;;;;;;;5103573;28;20378;-77
2023/07/05 08:26:56;;;;;;;3.22;1.73;;;;;;;;;;5107622;28;20055;-78
2023/07/05 08:29:23;;;;;;;4.90;2.67;;;;;;;;;;5107334;28;20487;-79
2023/07/05 08:31:50;;;;;;;3.58;1.83;;;;;;;;;;5104631;28;20515;-79
2023/07/05 08:34:17;;;;;;;7.72;2.13;;;;;;;;;;5102466;28;20060;-79
2023/07/05 08:36:46;;;;;;;3.42;1.52;;;;;;;;;;5103346;28;20051;-79
2023/07/05 08:39:13;;;;;;;3.47;1.77;;;;;;;;;;5109966;28;20062;-77
2023/07/05 08:41:53;;;;;;;3.22;1.83;;;;;;;;;;5113494;28;20060;-78
2023/07/05 08:44:22;;;;;;;3.63;1.45;;;;;;;;;;5112474;28;20056;-80
2023/07/05 08:47:03;;;;;;;2.80;1.85;;;;;;;;;;5108132;27;20050;-80
2023/07/05 08:49:31;;;;;;;2.92;1.60;;;;;;;;;;5109271;28;20062;-78
2023/07/05 08:51:59;;;;;;;4.30;1.77;;;;;;;;;;5109932;28;20055;-78
2023/07/05 08:54:31;;;;;;;3.45;1.80;;;;;;;;;;5109390;27;20052;-79
2023/07/05 08:57:02;;;;;;;2.67;1.70;;;;;;;;;;5111646;27;20062;-77
2023/07/05 08:59:31;;;;;;;3.05;1.60;;;;;;;;;;5112000;28;20047;-77
2023/07/05 09:01:59;;;;;;;6.43;1.80;;;;;;;;;;5107782;28;20058;-78
2023/07/05 09:04:27;;;;;;;2.83;1.50;;;;;;;;;;5112789;28;20058;-79
2023/07/05 09:06:57;;;;;;;5.32;1.77;;;;;;;;;;5111300;28;20982;-78
2023/07/05 09:09:28;;;;;;;5.15;1.67;;;;;;;;;;5105125;28;20051;-79
2023/07/05 09:12:01;;;;;;;2.78;1.58;;;;;;;;;;5109544;28;20078;-78
2023/07/05 09:14:34;;;;;;;7.40;1.70;;;;;;;;;;5111291;28;20052;-83
2023/07/05 09:17:03;;;;;;;2.83;1.67;;;;;;;;;;5109182;28;20074;-84
2023/07/05 09:19:39;;;;;;;3.60;1.80;;;;;;;;;;5109388;28;20055;-86
2023/07/05 09:22:08;;;;;;;4.63;1.40;;;;;;;;;;5105943;28;20062;-82
2023/07/05 09:24:37;;;;;;;2.75;1.50;;;;;;;;;;5110445;28;20051;-82
2023/07/05 09:27:06;;;;;;;5.43;1.90;;;;;;;;;;5109588;28;20154;-82
2023/07/05 09:29:37;;;;;;;3.92;1.52;;;;;;;;;;5105030;28;20059;-80
2023/07/05 09:32:08;;;;;;;3.53;1.55;;;;;;;;;;5105708;28;20056;-80
2023/07/05 09:34:38;;;;;;;4.10;1.70;;;;;;;;;;5109402;28;20059;-80
2023/07/05 09:37:12;;;;;;;8.57;2.08;;;;;;;;;;5107207;28;20059;-79
2023/07/05 09:39:42;;;;;;;4.03;1.27;;;;;;;;;;5107984;28;20063;-80
2023/07/05 09:42:12;;;;;;;8.00;2.20;;;;;;;;;;5104280;28;20062;-81
2023/07/05 09:44:41;;;;;;;3.92;1.73;;;;;;;;;;5110220;28;20399;-80
2023/07/05 09:47:07;;;;;;;3.42;1.65;;;;;;;;;;5108169;28;20055;-80
2023/07/05 09:49:34;;;;;;;4.28;1.63;;;;;;;;;;5108567;28;20059;-78
2023/07/05 09:52:01;;;;;;;6.68;2.25;;;;;;;;;;5111096;27;20048;-79
2023/07/05 09:54:29;;;;;;;5.57;1.65;;;;;;;;;;5109952;28;20048;-79
2023/07/05 09:56:59;;;;;;;5.38;2.42;;;;;;;;;;5110124;28;20500;-78
2023/07/05 09:59:25;;;;;;;3.92;1.52;;;;;;;;;;5109117;28;20051;-78
2023/07/05 10:01:55;;;;;;;2.90;1.40;;;;;;;;;;5109647;28;20055;-82
2023/07/05 10:04:26;;;;;;;4.60;1.42;;;;;;;;;;5110074;28;20244;-82
2023/07/05 10:06:53;;;;;;;5.68;1.85;;;;;;;;;;5108529;28;20485;-82
2023/07/05 10:09:21;;;;;;;5.22;1.40;;;;;;;;;;5111530;27;20062;-82
2023/07/05 10:11:50;;;;;;;4.32;1.80;;;;;;;;;;5109956;28;20055;-84
2023/07/05 10:14:19;;;;;;;8.00;1.83;;;;;;;;;;5108365;28;20504;-86
2023/07/05 10:16:48;;;;;;;4.03;1.63;;;;;;;;;;5103842;28;20051;-84
2023/07/05 10:19:23;;;;;;;5.70;1.70;;;;;;;;;;5108652;28;20059;-86
2023/07/05 10:21:52;;;;;;;4.65;1.65;;;;;;;;;;5109437;27;20483;-84
2023/07/05 10:24:19;;;;;;;;;;;;;;;;;;5112022;28;20052;-85
2023/07/05 10:26:48;;;;;;;5.40;1.90;;;;;;;;;;5110728;28;19923;-83
2023/07/05 10:29:15;;;;;;;;;;;;;;;;;;5103344;28;20056;-87
2023/07/05 10:31:51;;;;;;;5.93;1.60;;;;;;;;;;5104292;28;19927;-79
2023/07/05 10:34:19;;;;;;;5.22;1.60;;;;;;;;;;5106936;28;20062;-80
2023/07/05 10:36:48;;;;;;;3.10;1.33;;;;;;;;;;5102051;28;20055;-79
2023/07/05 10:39:17;;;;;;;4.15;1.40;;;;;;;;;;5105738;28;20059;-80
2023/07/05 10:41:44;;;;;;;5.57;1.70;;;;;;;;;;5102031;28;20043;-81
2023/07/05 10:44:16;;;;;;;6.78;1.98;;;;;;;;;;5100611;28;20052;-80
2023/07/05 10:46:46;;;;;;;4.78;1.35;;;;;;;;;;5100373;28;20708;-80
2023/07/05 10:49:14;;;;;;;7.72;1.95;;;;;;;;;;5103079;28;20066;-80
2023/07/05 10:51:43;;;;;;;6.90;1.77;;;;;;;;;;5100901;28;20051;-79
2023/07/05 10:54:23;;;;;;;6.95;2.03;;;;;;;;;;5103740;28;20056;-80
2023/07/05 10:56:50;;;;;;;4.40;1.50;;;;;;;;;;5094520;28;20059;-80
2023/07/05 10:59:21;;;;;;;3.20;1.40;;;;;;;;;;5107568;28;20420;-81
2023/07/05 11:01:51;;;;;;;4.03;1.50;;;;;;;;;;5105608;28;20051;-85
2023/07/05 11:04:21;;;;;;;4.03;1.67;;;;;;;;;;5086776;28;20504;-81
2023/07/05 11:06:49;;;;;;;5.45;1.65;;;;;;;;;;5093266;28;20063;-84
2023/07/05 11:09:18;;;;;;;8.18;1.90;;;;;;;;;;5097483;28;20412;-80
2023/07/05 11:11:48;;;;;;;6.75;1.90;;;;;;;;;;5105528;28;20412;-83
2023/07/05 11:14:15;;;;;;;4.80;1.50;;;;;;;;;;5104669;28;20361;-86
2023/07/05 11:16:43;;;;;;;3.95;1.75;;;;;;;;;;5104837;28;20167;-84
2023/07/05 11:19:12;;;;;;;5.53;1.60;;;;;;;;;;5107520;28;20813;-80
2023/07/05 11:21:39;;;;;;;3.53;1.73;;;;;;;;;;5104439;28;20059;-81
2023/07/05 11:24:08;;;;;;;5.15;1.40;;;;;;;;;;5103317;28;20063;-81
2023/07/05 11:26:41;;;;;;;5.82;2.08;;;;;;;;;;5103230;28;20051;-81
2023/07/05 11:29:26;;;;;;;4.07;1.65;;;;;;;;;;5101025;28;20059;-79
2023/07/05 11:31:57;;;;;;;4.90;1.80;;;;;;;;;;5105729;28;20534;-79
2023/07/05 11:34:34;;;;;;;4.25;1.70;;;;;;;;;;5103411;28;20056;-80
2023/07/05 11:37:18;;;;;;;5.90;1.95;;;;;;;;;;5093474;28;20056;-78
2023/07/05 11:39:46;;;;;;;5.07;1.48;;;;;;;;;;5103517;28;20048;-80
2023/07/05 11:42:31;;;;;;;5.03;1.90;;;;;;;;;;5098148;28;20493;-78
2023/07/05 11:45:13;;;;;;;4.43;1.77;;;;;;;;;;5098183;28;20048;-77
2023/07/05 11:47:48;;;;;;;6.60;1.80;;;;;;;;;;5098817;28;20051;-78
2023/07/05 11:50:15;;;;;;;6.07;2.20;;;;;;;;;;5096219;28;20055;-81
2023/07/05 11:52:43;;;;;;;5.00;1.67;;;;;;;;;;5103976;28;20048;-79
2023/07/05 11:55:12;;;;;;;6.40;1.70;;;;;;;;;;5100282;28;20059;-81
2023/07/05 11:57:41;;;;;;;6.60;1.73;;;;;;;;;;5100178;28;20044;-78
2023/07/05 12:00:14;;;;;;;7.38;1.75;;;;;;;;;;5105548;28;20484;-79
2023/07/05 12:02:48;;;;;;;5.35;1.80;;;;;;;;;;5098259;28;20511;-77
2023/07/05 12:05:17;;;;;;;4.30;1.60;;;;;;;;;;5103619;28;20052;-77
2023/07/05 12:07:45;;;;;;;4.47;1.40;;;;;;;;;;5105087;28;20063;-80
2023/07/05 12:10:16;;;;;;;5.73;1.70;;;;;;;;;;5105892;28;20044;-80
2023/07/05 12:12:42;;;;;;;5.18;1.73;;;;;;;;;;5108318;28;20066;-81
2023/07/05 12:15:10;;;;;;;5.07;1.50;;;;;;;;;;5104343;28;20066;-81
2023/07/05 12:17:38;;;;;;;3.88;1.58;;;;;;;;;;5107899;28;20443;-79
2023/07/05 12:20:14;;;;;;;6.57;1.50;;;;;;;;;;5108519;28;20060;-79
2023/07/05 12:22:41;;;;;;;8.40;2.45;;;;;;;;;;5101800;28;20048;-79
2023/07/05 12:25:09;;;;;;;10.30;2.00;;;;;;;;;;5109136;28;20059;-84
2023/07/05 12:27:35;;;;;;;6.40;2.03;;;;;;;;;;5105216;28;20062;-82
2023/07/05 12:30:03;;;;;;;4.45;1.67;;;;;;;;;;5106122;28;20074;-82
2023/07/05 12:32:31;;;;;;;5.53;1.75;;;;;;;;;;5103271;28;20052;-77
2023/07/05 12:35:07;;;;;;;4.75;1.80;;;;;;;;;;5107574;28;20052;-80
2023/07/05 12:37:34;;;;;;;4.47;1.77;;;;;;;;;;5104379;28;20059;-80
2023/07/05 12:40:22;;;;;;;4.65;1.60;;;;;;;;;;5101203;28;20047;-79
2023/07/05 12:42:49;;;;;;;5.05;1.75;;;;;;;;;;5103273;28;20048;-80
2023/07/05 12:45:17;;;;;;;5.28;1.75;;;;;;;;;;5105880;28;20558;-80
2023/07/05 12:47:44;;;;;;;4.18;1.60;;;;;;;;;;5109563;28;20039;-81
2023/07/05 12:50:13;;;;;;;6.35;2.10;;;;;;;;;;5109961;28;20040;-80
2023/07/05 12:52:40;;;;;;;5.97;1.80;;;;;;;;;;5109230;28;20055;-78
2023/07/05 12:55:23;;;;;;;4.45;1.95;;;;;;;;;;5105827;28;21694;-79
2023/07/05 12:57:52;;;;;;;4.28;1.50;;;;;;;;;;5105247;28;20453;-80
2023/07/05 13:00:20;;;;;;;4.75;1.75;;;;;;;;;;5109348;28;20365;-81
2023/07/05 13:02:46;;;;;;;17.27;2.53;;;;;;;;;;5109672;28;20066;-81
2023/07/05 13:05:15;;;;;;;6.82;1.70;;;;;;;;;;5107806;28;20050;-79
2023/07/05 13:07:42;;;;;;;8.85;1.80;;;;;;;;;;5106782;28;20044;-78
2023/07/05 13:10:10;;;;;;;6.63;1.50;;;;;;;;;;5108809;28;20070;-77
2023/07/05 13:12:47;;;;;;;9.77;2.10;;;;;;;;;;5108335;27;20550;-79
2023/07/05 13:15:16;;;;;;;5.55;1.98;;;;;;;;;;5106286;28;20044;-79
2023/07/05 13:17:43;;;;;;;4.55;1.80;;;;;;;;;;5107441;28;20058;-77
2023/07/05 13:20:16;;;;;;;3.72;1.50;;;;;;;;;;5106700;28;20051;-78
2023/07/05 13:22:43;;;;;;;4.53;1.92;;;;;;;;;;5106199;28;20047;-77
2023/07/05 13:25:31;;;;;;;3.92;1.75;;;;;;;;;;5109181;28;20048;-78
2023/07/05 13:27:58;;;;;;;7.45;2.25;;;;;;;;;;5098677;28;20051;-77
2023/07/05 13:30:28;;;;;;;6.63;1.85;;;;;;;;;;5103270;28;20044;-78
2023/07/05 13:32:55;;;;;;;4.82;2.33;;;;;;;;;;5108973;28;20055;-80
2023/07/05 13:35:24;;;;;;;5.78;1.98;;;;;;;;;;5102731;28;20121;-78
2023/07/05 13:37:52;;;;;;;8.25;2.22;;;;;;;;;;5105991;28;20058;-80
2023/07/05 13:40:23;;;;;;;7.15;2.40;;;;;;;;;;5105756;27;20070;-79
2023/07/05 13:42:50;;;;;;;9.23;2.65;;;;;;;;;;5109201;28;20401;-80
2023/07/05 13:45:18;;;;;;;7.60;2.22;;;;;;;;;;5105332;28;20052;-80
2023/07/05 13:47:45;;;;;;;5.88;2.67;;;;;;;;;;5108683;28;20059;-79
2023/07/05 13:50:13;;;;;;;7.53;2.05;;;;;;;;;;5103598;28;20103;-78
2023/07/05 13:52:41;;;;;;;6.35;2.38;;;;;;;;;;5104623;27;20423;-78
2023/07/05 13:55:15;;;;;;;4.95;1.85;;;;;;;;;;5107520;27;20075;-79
2023/07/05 13:57:51;;;;;;;7.03;1.83;;;;;;;;;;5109566;28;20051;-78
2023/07/05 14:00:18;;;;;;;4.50;1.77;;;;;;;;;;5106311;28;20051;-78
2023/07/05 14:02:45;;;;;;;5.32;1.70;;;;;;;;;;5107758;28;20480;-80
2023/07/05 14:05:13;;;;;;;11.57;1.90;;;;;;;;;;5102633;28;20059;-80
2023/07/05 14:07:41;;;;;;;7.13;2.30;;;;;;;;;;5102430;28;20044;-81
2023/07/05 14:10:08;;;;;;;5.45;1.80;;;;;;;;;;5137170;27;20051;-79
2023/07/05 14:12:35;;;;;;;5.88;2.13;;;;;;;;;;5144572;27;20050;-79
2023/07/05 14:15:02;;;;;;;3.83;1.70;;;;;;;;;;5138234;27;20051;-78
2023/07/05 14:17:28;;;;;;;3.30;1.60;;;;;;;;;;5145177;27;20051;-78
2023/07/05 14:19:55;;;;;;;6.50;2.35;;;;;;;;;;5136327;27;20051;-80
2023/07/05 14:22:23;;;;;;;6.75;2.17;;;;;;;;;;5143318;27;20058;-79
2023/07/05 14:24:52;;;;;;;6.05;2.30;;;;;;;;;;5138100;27;20057;-80
2023/07/05 14:27:20;;;;;;;5.28;2.00;;;;;;;;;;5141978;27;20054;-80
2023/07/05 14:29:47;;;;;;;3.63;1.60;;;;;;;;;;5137128;27;20783;-81
2023/07/05 14:32:15;;;;;;;4.55;2.00;;;;;;;;;;5131517;27;20043;-78
2023/07/05 14:34:42;;;;;;;3.80;2.10;;;;;;;;;;5121587;27;20487;-79
2023/07/05 14:37:09;;;;;;;4.43;2.15;;;;;;;;;;5124786;27;20095;-77
2023/07/05 14:39:35;;;;;;;4.63;1.80;;;;;;;;;;5125221;27;20066;-79
2023/07/05 14:42:04;;;;;;;5.53;1.90;;;;;;;;;;5127601;27;20358;-78
2023/07/05 14:44:31;;;;;;;3.83;1.85;;;;;;;;;;5133554;27;20055;-79
2023/07/05 14:46:58;;;;;;;4.68;2.05;;;;;;;;;;5133220;27;20076;-79
2023/07/05 14:49:25;;;;;;;4.30;1.75;;;;;;;;;;5133530;27;20043;-79
2023/07/05 14:51:53;;;;;;;4.05;1.75;;;;;;;;;;5131380;27;20074;-79